createdAt,value
2022-12-18T00:01:36.156Z,79.58
2022-12-18T00:04:05.624Z,79.09
2022-12-18T00:06:33.905Z,79.33
2022-12-18T00:09:01.893Z,79.50
2022-12-18T00:11:30.975Z,78.92
2022-12-18T00:13:59.228Z,79.36
2022-12-18T00:16:27.490Z,78.83
2022-12-18T00:18:56.250Z,79.13
2022-12-18T00:21:23.464Z,79.48
2022-12-18T00:23:51.453Z,79.63
2022-12-18T00:26:20.961Z,79.31
2022-12-18T00:28:50.044Z,79.51
2022-12-18T00:31:19.801Z,78.75
2022-12-18T00:33:46.988Z,78.88
2022-12-18T00:36:18.883Z,78.76
2022-12-18T00:38:46.596Z,78.77
2022-12-18T00:41:35.148Z,78.78
2022-12-18T00:44:02.874Z,78.81
2022-12-18T00:46:29.850Z,78.77
2022-12-18T00:48:56.809Z,78.91
2022-12-18T00:51:24.122Z,79.00
2022-12-18T00:53:51.224Z,79.45
2022-12-18T00:56:18.148Z,78.90
2022-12-18T00:58:45.554Z,78.96
2022-12-18T01:01:12.584Z,79.74
2022-12-18T01:03:39.876Z,78.89
2022-12-18T01:06:09.663Z,79.06
2022-12-18T01:08:36.934Z,79.13
2022-12-18T01:11:12.804Z,79.20
2022-12-18T01:13:41.970Z,79.00
2022-12-18T01:16:10.095Z,79.73
2022-12-18T01:18:37.139Z,79.37
2022-12-18T01:21:12.578Z,79.48
2022-12-18T01:23:40.082Z,79.23
2022-12-18T01:26:09.175Z,79.60
2022-12-18T01:28:36.904Z,79.45
2022-12-18T01:31:25.213Z,78.92
2022-12-18T01:33:53.034Z,78.97
2022-12-18T01:36:23.165Z,79.13
2022-12-18T01:38:50.286Z,79.12
2022-12-18T01:41:19.746Z,78.92
2022-12-18T01:43:49.967Z,79.71
2022-12-18T01:46:18.566Z,78.86
2022-12-18T01:48:48.187Z,79.87
2022-12-18T01:51:15.499Z,78.97
2022-12-18T01:53:43.265Z,80.00
2022-12-18T01:56:15.386Z,79.01
2022-12-18T01:59:07.292Z,79.99
2022-12-18T02:01:34.295Z,79.52
2022-12-18T02:04:26.381Z,79.48
2022-12-18T02:07:18.386Z,79.60
2022-12-18T02:09:45.296Z,79.10
2022-12-18T02:12:20.893Z,78.85
2022-12-18T02:14:55.879Z,78.89
2022-12-18T02:17:26.053Z,79.22
2022-12-18T02:20:06.921Z,79.82
2022-12-18T02:22:41.933Z,79.83
2022-12-18T02:25:19.945Z,79.03
2022-12-18T02:27:48.183Z,79.23
2022-12-18T02:30:15.876Z,79.19
2022-12-18T02:32:46.262Z,79.06
2022-12-18T02:35:20.596Z,79.24
2022-12-18T02:37:51.165Z,79.03
2022-12-18T02:40:18.661Z,79.55
2022-12-18T02:42:45.822Z,79.06
2022-12-18T02:45:16.621Z,79.58
2022-12-18T02:47:46.761Z,79.69
2022-12-18T02:50:32.102Z,79.05
2022-12-18T02:53:15.413Z,79.82
2022-12-18T02:55:54.311Z,79.00
2022-12-18T02:58:35.694Z,79.72
2022-12-18T03:01:15.290Z,78.98
2022-12-18T03:04:07.413Z,79.29
2022-12-18T03:06:40.993Z,79.23
2022-12-18T03:09:11.415Z,79.18
2022-12-18T03:12:00.050Z,79.87
2022-12-18T03:14:28.318Z,79.49
2022-12-18T03:17:00.057Z,79.15
2022-12-18T03:19:29.132Z,79.66
2022-12-18T03:22:00.013Z,79.10
2022-12-18T03:24:29.414Z,79.90
2022-12-18T03:27:01.326Z,79.33
2022-12-18T03:29:34.363Z,79.09
2022-12-18T03:32:09.381Z,79.39
2022-12-18T03:34:40.359Z,79.52
2022-12-18T03:37:08.845Z,78.99
2022-12-18T03:39:37.794Z,79.60
2022-12-18T03:42:27.174Z,80.08
2022-12-18T03:45:25.782Z,79.14
2022-12-18T03:48:11.282Z,80.24
2022-12-18T03:51:08.266Z,79.76
2022-12-18T03:53:48.844Z,79.54
2022-12-18T03:56:17.689Z,79.61
2022-12-18T03:58:45.222Z,79.67
2022-12-18T04:01:29.783Z,79.65
2022-12-18T04:03:58.207Z,79.34
2022-12-18T04:06:25.166Z,79.09
2022-12-18T04:08:52.774Z,79.03
2022-12-18T04:11:22.654Z,80.14
2022-12-18T04:13:49.703Z,79.25
2022-12-18T04:16:22.995Z,79.94
2022-12-18T04:18:54.044Z,79.18
2022-12-18T04:21:23.709Z,79.72
2022-12-18T04:23:50.964Z,79.23
2022-12-18T04:26:21.313Z,80.25
2022-12-18T04:29:06.825Z,79.88
2022-12-18T04:31:34.404Z,79.50
2022-12-18T04:34:03.185Z,79.28
2022-12-18T04:36:36.122Z,79.80
2022-12-18T04:39:03.125Z,79.44
2022-12-18T04:41:31.499Z,79.40
2022-12-18T04:43:58.828Z,79.47
2022-12-18T04:46:26.042Z,79.85
2022-12-18T04:48:53.099Z,79.61
2022-12-18T04:51:26.162Z,79.88
2022-12-18T04:53:54.243Z,79.23
2022-12-18T04:56:21.395Z,79.22
2022-12-18T04:58:48.458Z,79.24
2022-12-18T05:01:17.079Z,79.87
2022-12-18T05:03:44.662Z,79.86
2022-12-18T05:06:12.476Z,79.87
2022-12-18T05:08:39.599Z,79.35
2022-12-18T05:11:09.541Z,79.71
2022-12-18T05:13:39.403Z,79.80
2022-12-18T05:16:07.482Z,79.68
2022-12-18T05:18:35.041Z,79.66
2022-12-18T05:21:02.209Z,79.42
2022-12-18T05:23:29.508Z,79.74
2022-12-18T05:25:59.139Z,79.61
2022-12-18T05:28:27.959Z,79.84
2022-12-18T05:30:59.485Z,79.78
2022-12-18T05:33:28.303Z,79.64
2022-12-18T05:35:57.002Z,79.49
2022-12-18T05:38:25.114Z,79.79
2022-12-18T05:40:53.120Z,79.50
2022-12-18T05:43:22.661Z,79.20
2022-12-18T05:45:50.507Z,79.79
2022-12-18T05:48:18.153Z,79.27
2022-12-18T05:50:47.058Z,79.68
2022-12-18T05:53:16.258Z,79.75
2022-12-18T05:55:44.517Z,79.40
2022-12-18T05:58:12.900Z,79.12
2022-12-18T06:00:42.905Z,79.43
2022-12-18T06:03:11.487Z,79.67
2022-12-18T06:05:43.943Z,79.59
2022-12-18T06:08:12.159Z,79.52
2022-12-18T06:10:39.147Z,79.90
2022-12-18T06:13:06.783Z,79.39
2022-12-18T06:15:34.280Z,79.61
2022-12-18T06:18:01.989Z,79.51
2022-12-18T06:20:33.695Z,79.68
2022-12-18T06:23:01.224Z,79.47
2022-12-18T06:25:28.289Z,79.56
2022-12-18T06:27:55.378Z,79.68
2022-12-18T06:30:22.616Z,79.48
2022-12-18T06:32:53.148Z,79.15
2022-12-18T06:35:23.875Z,79.69
2022-12-18T06:37:51.071Z,79.48
2022-12-18T06:40:18.243Z,79.62
2022-12-18T06:42:45.181Z,79.78
2022-12-18T06:45:12.661Z,79.43
2022-12-18T06:47:39.650Z,79.35
2022-12-18T06:50:07.201Z,79.30
2022-12-18T06:52:34.731Z,79.66
2022-12-18T06:55:01.826Z,79.85
2022-12-18T06:57:29.006Z,79.29
2022-12-18T06:59:55.977Z,79.23
2022-12-18T07:02:23.242Z,79.19
2022-12-18T07:04:51.955Z,79.49
2022-12-18T07:07:19.199Z,79.51
2022-12-18T07:09:46.263Z,79.45
2022-12-18T07:12:13.564Z,79.42
2022-12-18T07:14:40.886Z,79.53
2022-12-18T07:17:08.308Z,79.46
2022-12-18T07:19:35.552Z,79.42
2022-12-18T07:22:03.228Z,79.44
2022-12-18T07:24:32.151Z,79.52
2022-12-18T07:26:59.698Z,79.24
2022-12-18T07:29:27.053Z,79.30
2022-12-18T07:31:54.287Z,79.51
2022-12-18T07:34:21.634Z,79.45
2022-12-18T07:36:48.657Z,79.37
2022-12-18T07:39:15.830Z,79.65
2022-12-18T07:42:05.528Z,79.36
2022-12-18T07:44:33.581Z,79.32
2022-12-18T07:47:00.791Z,79.85
2022-12-18T07:49:27.800Z,79.18
2022-12-18T07:51:57.325Z,79.91
2022-12-18T07:54:25.409Z,79.84
2022-12-18T07:56:53.618Z,79.38
2022-12-18T07:59:20.605Z,79.53
2022-12-18T08:01:47.734Z,79.55
2022-12-18T08:04:14.878Z,79.35
2022-12-18T08:06:46.237Z,79.86
2022-12-18T08:09:15.297Z,79.57
2022-12-18T08:11:42.426Z,79.37
2022-12-18T08:14:09.607Z,79.67
2022-12-18T08:16:37.547Z,79.98
2022-12-18T08:19:04.737Z,79.91
2022-12-18T08:21:32.889Z,79.71
2022-12-18T08:24:01.344Z,79.66
2022-12-18T08:26:30.957Z,79.88
2022-12-18T08:28:59.775Z,79.92
2022-12-18T08:31:28.408Z,80.25
2022-12-18T08:33:55.773Z,79.21
2022-12-18T08:36:25.015Z,79.25
2022-12-18T08:38:53.666Z,79.57
2022-12-18T08:41:21.698Z,80.25
2022-12-18T08:44:09.007Z,79.56
2022-12-18T08:46:41.372Z,79.40
2022-12-18T08:49:09.085Z,79.55
2022-12-18T08:51:37.083Z,80.10
2022-12-18T08:54:05.164Z,80.24
2022-12-18T08:56:34.330Z,80.16
2022-12-18T08:59:01.404Z,80.41
2022-12-18T09:01:29.018Z,80.32
2022-12-18T09:03:56.080Z,80.00
2022-12-18T09:06:23.974Z,80.31
2022-12-18T09:08:51.083Z,80.01
2022-12-18T09:11:28.534Z,79.72
2022-12-18T09:13:56.825Z,80.27
2022-12-18T09:16:30.301Z,80.10
2022-12-18T09:19:03.223Z,80.27
2022-12-18T09:21:35.019Z,80.22
2022-12-18T09:24:04.578Z,80.42
2022-12-18T09:26:34.997Z,79.89
2022-12-18T09:29:01.878Z,80.04
2022-12-18T09:31:28.805Z,80.35
2022-12-18T09:33:57.629Z,80.00
2022-12-18T09:36:24.612Z,80.20
2022-12-18T09:38:52.129Z,80.04
2022-12-18T09:41:37.019Z,80.13
2022-12-18T09:44:11.154Z,79.99
2022-12-18T09:46:44.357Z,80.20
2022-12-18T09:49:16.015Z,79.74
2022-12-18T09:51:50.726Z,79.93
2022-12-18T09:54:39.023Z,80.02
2022-12-18T09:57:06.402Z,79.83
2022-12-18T09:59:36.960Z,79.90
2022-12-18T10:02:24.360Z,79.99
2022-12-18T10:05:13.676Z,80.01
2022-12-18T10:08:11.630Z,80.11
2022-12-18T10:10:48.457Z,79.74
2022-12-18T10:13:43.032Z,79.87
2022-12-18T10:16:14.849Z,79.71
2022-12-18T10:19:03.832Z,79.66
2022-12-18T10:21:45.708Z,79.95
2022-12-18T10:24:46.350Z,79.93
2022-12-18T10:27:18.709Z,80.17
2022-12-18T10:29:47.024Z,80.18
2022-12-18T10:32:25.969Z,79.74
2022-12-18T10:35:00.094Z,79.85
2022-12-18T10:37:29.925Z,79.84
2022-12-18T10:40:29.479Z,79.87
2022-12-18T10:43:15.629Z,80.01
2022-12-18T10:45:43.517Z,79.40
2022-12-18T10:48:23.056Z,79.61
2022-12-18T10:53:41.541Z,79.88
2022-12-18T10:56:08.666Z,79.44
2022-12-18T10:58:38.088Z,79.46
2022-12-18T11:01:12.323Z,79.72
2022-12-18T11:03:41.161Z,79.18
2022-12-18T11:06:13.731Z,79.51
2022-12-18T11:08:43.104Z,79.58
2022-12-18T11:11:24.200Z,78.88
2022-12-18T11:14:28.503Z,79.09
2022-12-18T11:19:43.584Z,79.30
2022-12-18T11:22:29.994Z,78.73
2022-12-18T11:25:32.689Z,79.13
2022-12-18T11:27:55.824Z,79.09
2022-12-18T11:30:26.798Z,78.23
2022-12-18T11:32:59.839Z,78.70
2022-12-18T11:35:45.351Z,78.25
2022-12-18T11:38:25.233Z,78.35
2022-12-18T11:41:13.899Z,77.92
2022-12-18T11:43:48.840Z,78.71
2022-12-18T11:46:20.391Z,78.46
2022-12-18T11:49:00.085Z,77.83
2022-12-18T11:51:37.249Z,78.20
2022-12-18T11:54:14.131Z,78.28
2022-12-18T11:56:47.724Z,77.66
2022-12-18T11:59:33.791Z,77.65
2022-12-18T12:02:19.083Z,77.63
2022-12-18T12:05:10.294Z,77.99
2022-12-18T12:08:01.547Z,77.65
2022-12-18T12:10:52.908Z,77.46
2022-12-18T12:13:29.503Z,77.03
2022-12-18T12:16:12.518Z,77.33
2022-12-18T12:19:02.467Z,77.08
2022-12-18T12:21:48.179Z,77.02
2022-12-18T12:24:30.631Z,77.36
2022-12-18T12:27:06.725Z,77.37
2022-12-18T12:29:53.094Z,76.43
2022-12-18T12:32:35.198Z,76.28
2022-12-18T12:35:39.915Z,76.46
2022-12-18T12:38:12.140Z,76.72
2022-12-18T12:41:02.124Z,76.43
2022-12-18T12:43:50.638Z,76.43
2022-12-18T12:46:22.151Z,76.30
2022-12-18T12:49:05.097Z,76.05
2022-12-18T12:51:41.255Z,76.15
2022-12-18T12:54:22.428Z,75.94
2022-12-18T12:56:57.607Z,75.50
2022-12-18T12:59:43.000Z,75.41
2022-12-18T13:02:22.278Z,75.81
2022-12-18T13:05:08.137Z,75.74
2022-12-18T13:08:07.031Z,75.50
2022-12-18T13:11:15.048Z,75.58
2022-12-18T13:13:54.950Z,75.35
2022-12-18T13:16:25.469Z,75.13
2022-12-18T13:18:58.969Z,75.22
2022-12-18T13:21:29.954Z,75.06
2022-12-18T13:23:58.533Z,75.60
2022-12-18T13:29:41.498Z,74.85
2022-12-18T13:32:24.796Z,75.20
2022-12-18T13:38:36.023Z,75.12
2022-12-18T13:41:21.965Z,75.25
2022-12-18T13:43:54.242Z,75.26
2022-12-18T13:46:44.424Z,75.44
2022-12-18T13:49:14.890Z,74.67
2022-12-18T13:51:53.290Z,74.93
2022-12-18T13:54:29.478Z,75.02
2022-12-18T13:56:56.771Z,74.33
2022-12-18T13:59:37.198Z,74.97
2022-12-18T14:02:17.765Z,74.72
2022-12-18T14:04:49.256Z,74.72
2022-12-18T14:07:17.870Z,74.80
2022-12-18T14:09:52.315Z,74.68
2022-12-18T14:12:45.605Z,74.81
2022-12-18T14:15:28.231Z,74.87
2022-12-18T14:18:01.093Z,74.67
2022-12-18T14:20:33.310Z,74.78
2022-12-18T14:23:01.663Z,74.71
2022-12-18T14:25:31.254Z,74.62
2022-12-18T14:28:15.134Z,74.62
2022-12-18T14:30:47.237Z,74.49
2022-12-18T14:33:19.650Z,74.68
2022-12-18T14:36:06.406Z,74.52
2022-12-18T14:38:41.253Z,74.61
2022-12-18T14:41:13.673Z,74.42
2022-12-18T14:43:46.806Z,74.72
2022-12-18T14:46:35.444Z,74.75
2022-12-18T14:49:21.089Z,74.43
2022-12-18T14:51:54.892Z,74.74
2022-12-18T14:54:24.052Z,74.78
2022-12-18T14:56:56.456Z,74.94
2022-12-18T14:59:25.313Z,74.43
2022-12-18T15:02:17.618Z,74.73
2022-12-18T15:04:45.286Z,74.98
2022-12-18T15:07:12.244Z,74.60
2022-12-18T15:09:41.766Z,74.98
2022-12-18T15:12:30.334Z,74.63
2022-12-18T15:14:59.156Z,75.04
2022-12-18T15:17:26.684Z,74.31
2022-12-18T15:20:03.354Z,74.44
2022-12-18T15:22:34.215Z,75.09
2022-12-18T15:25:01.775Z,74.54
2022-12-18T15:27:36.987Z,75.06
2022-12-18T15:30:10.144Z,74.09
2022-12-18T15:32:38.575Z,74.73
2022-12-18T15:35:17.364Z,74.20
2022-12-18T15:37:45.283Z,74.81
2022-12-18T15:40:21.126Z,74.96
2022-12-18T15:43:07.210Z,74.91
2022-12-18T15:45:34.269Z,75.33
2022-12-18T15:48:01.441Z,74.82
2022-12-18T15:50:28.745Z,74.70
2022-12-18T15:52:56.584Z,74.58
2022-12-18T15:55:43.571Z,74.82
2022-12-18T15:58:12.256Z,74.44
2022-12-18T16:00:40.849Z,74.78
2022-12-18T16:03:08.547Z,74.35
2022-12-18T16:05:35.968Z,74.51
2022-12-18T16:08:03.248Z,74.71
2022-12-18T16:10:30.475Z,75.38
2022-12-18T16:12:57.573Z,75.32
2022-12-18T16:15:25.162Z,75.46
2022-12-18T16:17:52.970Z,75.38
2022-12-18T16:20:23.730Z,74.35
2022-12-18T16:22:51.139Z,74.64
2022-12-18T16:25:23.454Z,74.98
2022-12-18T16:27:50.931Z,74.36
2022-12-18T16:30:25.152Z,75.01
2022-12-18T16:32:53.504Z,74.88
2022-12-18T16:35:20.683Z,74.36
2022-12-18T16:37:47.826Z,75.07
2022-12-18T16:40:16.930Z,75.05
2022-12-18T16:42:45.765Z,74.45
2022-12-18T16:45:15.976Z,74.46
2022-12-18T16:47:43.183Z,74.47
2022-12-18T16:50:11.030Z,75.04
2022-12-18T16:52:38.668Z,75.30
2022-12-18T16:55:06.382Z,75.02
2022-12-18T16:57:33.753Z,74.18
2022-12-18T17:00:05.026Z,74.54
2022-12-18T17:02:33.331Z,74.93
2022-12-18T17:05:02.685Z,74.95
2022-12-18T17:07:29.912Z,74.44
2022-12-18T17:09:57.656Z,74.57
2022-12-18T17:12:25.275Z,75.03
2022-12-18T17:14:52.441Z,74.41
2022-12-18T17:17:21.848Z,74.72
2022-12-18T17:19:50.610Z,75.32
2022-12-18T17:22:17.648Z,74.26
2022-12-18T17:24:44.684Z,75.18
2022-12-18T17:27:11.888Z,74.16
2022-12-18T17:29:43.928Z,74.48
2022-12-18T17:32:13.758Z,75.32
2022-12-18T17:34:41.069Z,74.64
2022-12-18T17:37:08.498Z,74.39
2022-12-18T17:39:35.793Z,74.86
2022-12-18T17:42:02.816Z,74.33
2022-12-18T17:44:30.000Z,74.62
2022-12-18T17:47:01.167Z,74.16
2022-12-18T17:49:29.624Z,75.19
2022-12-18T17:51:56.662Z,75.15
2022-12-18T17:54:23.714Z,74.96
2022-12-18T17:56:50.759Z,74.58
2022-12-18T17:59:17.891Z,74.67
2022-12-18T18:02:03.569Z,75.40
2022-12-18T18:04:37.847Z,74.99
2022-12-18T18:07:05.094Z,74.74
2022-12-18T18:09:32.528Z,74.69
2022-12-18T18:12:18.256Z,75.06
2022-12-18T18:14:45.522Z,74.80
2022-12-18T18:17:12.942Z,74.46
2022-12-18T18:19:40.106Z,74.52
2022-12-18T18:22:07.605Z,75.23
2022-12-18T18:24:35.158Z,74.65
2022-12-18T18:27:02.255Z,75.12
2022-12-18T18:29:32.946Z,74.36
2022-12-18T18:32:00.344Z,74.77
2022-12-18T18:34:30.300Z,74.92
2022-12-18T18:36:57.453Z,74.75
2022-12-18T18:39:24.952Z,74.86
2022-12-18T18:41:52.325Z,75.02
2022-12-18T18:44:25.918Z,75.27
2022-12-18T18:46:55.391Z,74.89
2022-12-18T18:49:28.296Z,74.47
2022-12-18T18:51:56.858Z,74.82
2022-12-18T18:54:24.976Z,74.51
2022-12-18T18:59:39.238Z,74.81
2022-12-18T19:02:06.680Z,75.13
2022-12-18T19:04:34.392Z,74.76
2022-12-18T19:07:01.611Z,74.79
2022-12-18T19:09:28.937Z,74.88
2022-12-18T19:12:14.727Z,74.94
2022-12-18T19:14:42.201Z,74.73
2022-12-18T19:17:10.420Z,75.00
2022-12-18T19:19:37.510Z,75.00
2022-12-18T19:22:09.927Z,75.36
2022-12-18T19:24:37.476Z,75.48
2022-12-18T19:27:05.478Z,74.91
2022-12-18T19:29:32.637Z,75.30
2022-12-18T19:32:00.897Z,75.09
2022-12-18T19:34:29.237Z,75.11
2022-12-18T19:36:59.928Z,75.41
2022-12-18T19:39:30.926Z,75.41
2022-12-18T19:42:00.106Z,75.28
2022-12-18T19:44:30.851Z,75.41
2022-12-18T19:47:03.646Z,75.45
2022-12-18T19:49:36.424Z,75.60
2022-12-18T19:52:03.370Z,75.24
2022-12-18T19:58:10.521Z,75.21
2022-12-18T20:00:39.451Z,75.81
2022-12-18T20:03:25.259Z,75.83
2022-12-18T20:06:08.305Z,75.93
2022-12-18T20:08:36.545Z,75.02
2022-12-18T20:11:06.409Z,75.61
2022-12-18T20:13:36.609Z,75.68
2022-12-18T20:16:07.646Z,75.61
2022-12-18T20:18:40.179Z,75.80
2022-12-18T20:21:13.677Z,75.53
2022-12-18T20:23:44.902Z,75.70
2022-12-18T20:26:15.767Z,75.74
2022-12-18T20:28:43.800Z,75.76
2022-12-18T20:31:13.751Z,76.22
2022-12-18T20:33:42.912Z,75.50
2022-12-18T20:36:15.725Z,75.59
2022-12-18T20:38:44.299Z,75.63
2022-12-18T20:41:17.736Z,75.85
2022-12-18T20:43:46.043Z,76.10
2022-12-18T20:46:17.028Z,75.82
2022-12-18T20:48:45.353Z,75.95
2022-12-18T20:51:16.868Z,75.92
2022-12-18T20:53:44.802Z,75.91
2022-12-18T20:56:20.161Z,75.77
2022-12-18T20:58:49.999Z,76.16
2022-12-18T21:01:19.971Z,76.25
2022-12-18T21:03:47.935Z,75.69
2022-12-18T21:06:16.834Z,76.21
2022-12-18T21:08:44.451Z,75.75
2022-12-18T21:11:50.276Z,75.84
2022-12-18T21:14:21.534Z,76.08
2022-12-18T21:16:49.541Z,75.83
2022-12-18T21:19:23.734Z,76.08
2022-12-18T21:21:52.098Z,76.01
2022-12-18T21:24:20.003Z,76.08
2022-12-18T21:26:48.022Z,76.34
2022-12-18T21:29:33.465Z,76.61
2022-12-18T21:32:00.862Z,76.33
2022-12-18T21:34:30.276Z,76.15
2022-12-18T21:36:58.969Z,76.21
2022-12-18T21:39:26.975Z,76.00
2022-12-18T21:42:12.512Z,76.71
2022-12-18T21:44:41.446Z,76.68
2022-12-18T21:47:22.747Z,76.63
2022-12-18T21:49:54.017Z,76.06
2022-12-18T21:52:31.512Z,76.51
2022-12-18T21:55:07.871Z,76.55
2022-12-18T21:57:37.250Z,76.27
2022-12-18T22:00:06.567Z,76.62
2022-12-18T22:02:39.333Z,76.75
2022-12-18T22:05:07.252Z,76.38
2022-12-18T22:07:34.489Z,76.65
2022-12-18T22:10:01.980Z,76.20
2022-12-18T22:12:39.775Z,76.97
2022-12-18T22:15:10.967Z,76.28
2022-12-18T22:17:39.464Z,76.31
2022-12-18T22:20:08.084Z,76.76
2022-12-18T22:22:35.507Z,76.61
2022-12-18T22:25:02.571Z,76.78
2022-12-18T22:27:29.696Z,76.52
2022-12-18T22:30:08.759Z,76.66
2022-12-18T22:32:36.372Z,77.08
2022-12-18T22:35:10.432Z,76.87
2022-12-18T22:37:41.304Z,76.85
2022-12-18T22:40:13.293Z,76.87
2022-12-18T22:42:41.178Z,76.97
2022-12-18T22:45:08.739Z,76.95
2022-12-18T22:47:35.701Z,76.74
2022-12-18T22:50:02.694Z,76.93
2022-12-18T22:52:29.692Z,76.85
2022-12-18T22:54:56.660Z,76.98
2022-12-18T22:57:23.953Z,77.33
2022-12-18T22:59:51.626Z,76.91
2022-12-18T23:02:19.750Z,77.08
2022-12-18T23:04:47.922Z,77.06
2022-12-18T23:07:16.002Z,76.79
2022-12-18T23:09:43.134Z,77.00
2022-12-18T23:12:19.302Z,76.91
2022-12-18T23:14:47.454Z,77.22
2022-12-18T23:17:14.426Z,77.10
2022-12-18T23:19:47.198Z,77.09
2022-12-18T23:22:15.995Z,76.97
2022-12-18T23:24:42.991Z,77.06
2022-12-18T23:29:40.102Z,76.88
2022-12-18T23:32:07.210Z,77.13
2022-12-18T23:34:34.210Z,77.10
2022-12-18T23:37:01.294Z,77.03
2022-12-18T23:39:30.088Z,76.92
2022-12-18T23:41:58.525Z,77.06
2022-12-18T23:44:25.766Z,77.58
2022-12-18T23:46:52.873Z,77.23
2022-12-18T23:49:20.022Z,77.29
2022-12-18T23:51:46.904Z,77.19
2022-12-18T23:54:13.864Z,76.97
2022-12-18T23:56:40.908Z,77.44
2022-12-18T23:59:07.919Z,77.27
